Mount Auburn, Ohio
Current Conditions -  °F | °C
As of 12:53 AM on Sunday 23 Nov 2014 (Local Time) from KLUK Reporting Station
Overcast Overcast  
Wind Chill: 43°   Ceiling: 8000
Heat Index: 43°   Visibility: 10mi
Dew Point: 36°   Wind: 3mph
Humidity: 76%   Direction: 220°SW
Pressure: 30.08"   Gusts: NA
Location:  39.1276°N, 84.5123°W
Report Text: KLUK 230553Z AUTO 22003KT 10SM OVC080 06/02 A3008 RMK AO2 SLP185 T00610022 10117 20050 58003
Loading
Personal Weather Stations






























Interactive Weather Map New forecast layout! Learn more

10-Day Weather Forecast

Advertisements
Track Severe Weather on mobile